Time;durP1;ratioP1;P1;durP2;ratioP2;P2;SDS_P1;SDS_P2;PMS_P1;PMS_P2;Temp;Humidity;BMP_temperature;BMP_pressure;BME280_temperature;BME280_humidity;BME280_pressure;Samples;Min_cycle;Max_cycle;Signal;HPM_P1;HPM_P2
2022/04/08 00:01:25;;;;;;;10.77;1.70;;;6.50;99.90;;;;;;4984850;28;20052;-75
2022/04/08 00:03:58;;;;;;;11.18;1.70;;;6.50;99.90;;;;;;5004326;28;20051;-75
2022/04/08 00:06:24;;;;;;;9.70;1.70;;;6.50;99.90;;;;;;5005080;28;20046;-75
2022/04/08 00:08:50;;;;;;;10.27;1.88;;;6.40;99.90;;;;;;4971560;28;20092;-75
2022/04/08 00:11:16;;;;;;;10.73;2.10;;;6.40;99.90;;;;;;5005778;28;20124;-75
2022/04/08 00:13:42;;;;;;;10.52;1.70;;;6.40;99.90;;;;;;5003710;28;20048;-75
2022/04/08 00:16:09;;;;;;;9.98;1.83;;;6.30;99.90;;;;;;4991267;28;20045;-75
2022/04/08 00:18:35;;;;;;;10.65;2.00;;;6.30;99.90;;;;;;4986306;28;20140;-75
2022/04/08 00:21:01;;;;;;;12.07;2.15;;;6.30;99.90;;;;;;4994104;28;20061;-75
2022/04/08 00:23:27;;;;;;;7.15;1.60;;;6.20;99.90;;;;;;5001216;28;20049;-75
2022/04/08 00:25:59;;;;;;;11.95;2.10;;;6.20;99.90;;;;;;4986208;28;20101;-75
2022/04/08 00:28:32;;;;;;;11.70;2.13;;;6.30;99.90;;;;;;5003959;28;20041;-75
2022/04/08 00:30:58;;;;;;;10.80;2.00;;;6.30;99.90;;;;;;5009855;28;20049;-75
2022/04/08 00:33:24;;;;;;;13.40;1.92;;;6.30;99.90;;;;;;5001955;28;20906;-75
2022/04/08 00:35:50;;;;;;;10.18;1.75;;;6.30;99.90;;;;;;5006877;28;20041;-75
2022/04/08 00:38:16;;;;;;;10.60;2.05;;;6.30;99.90;;;;;;5013862;28;20040;-75
2022/04/08 00:40:42;;;;;;;12.45;2.10;;;6.30;99.90;;;;;;5013989;28;20566;-75
2022/04/08 00:43:18;;;;;;;9.75;1.58;;;6.30;99.90;;;;;;5012190;28;20126;-76
2022/04/08 00:45:45;;;;;;;11.27;1.63;;;6.20;99.90;;;;;;4989044;28;20061;-75
2022/04/08 00:48:11;;;;;;;10.63;1.80;;;6.30;99.90;;;;;;4988277;28;20159;-75
2022/04/08 00:50:43;;;;;;;10.00;1.63;;;6.30;99.90;;;;;;4994889;28;20049;-75
2022/04/08 00:53:09;;;;;;;8.07;1.58;;;6.30;99.90;;;;;;5009786;28;20048;-76
2022/04/08 00:55:37;;;;;;;9.27;1.65;;;6.20;99.90;;;;;;5007023;28;20045;-75
2022/04/08 00:58:04;;;;;;;6.30;1.20;;;6.30;99.90;;;;;;5006879;28;20092;-76
2022/04/08 01:00:35;;;;;;;7.25;1.10;;;6.30;99.90;;;;;;5009165;28;20450;-76
2022/04/08 01:03:01;;;;;;;8.15;1.30;;;6.30;99.90;;;;;;5007635;28;20509;-75
2022/04/08 01:05:27;;;;;;;9.20;1.45;;;6.20;99.90;;;;;;4989901;28;20895;-75
2022/04/08 01:07:57;;;;;;;6.35;1.10;;;6.10;99.90;;;;;;5009500;28;20092;-75
2022/04/08 01:10:23;;;;;;;4.53;0.82;;;6.10;99.90;;;;;;5013525;28;20049;-76
2022/04/08 01:12:49;;;;;;;3.50;0.90;;;5.90;99.90;;;;;;4994857;28;20045;-75
2022/04/08 01:15:20;;;;;;;4.72;1.02;;;5.80;99.90;;;;;;4970774;28;20088;-75
2022/04/08 01:17:46;;;;;;;3.58;0.70;;;5.70;99.90;;;;;;5005638;28;20058;-74
2022/04/08 01:20:13;;;;;;;3.72;0.60;;;5.60;99.90;;;;;;5008799;28;20045;-75
2022/04/08 01:22:39;;;;;;;5.18;0.90;;;5.60;99.90;;;;;;5008461;28;20084;-75
2022/04/08 01:25:10;;;;;;;4.63;0.93;;;5.60;99.90;;;;;;5008628;28;20046;-75
2022/04/08 01:27:37;;;;;;;4.53;0.95;;;5.60;99.90;;;;;;4991899;28;20099;-75
2022/04/08 01:30:05;;;;;;;6.18;1.23;;;5.60;99.90;;;;;;5007513;28;20191;-74
2022/04/08 01:32:31;;;;;;;7.85;1.17;;;5.50;99.90;;;;;;5005996;28;20508;-74
2022/04/08 01:34:56;;;;;;;5.85;1.05;;;5.50;99.90;;;;;;5007092;28;20125;-75
2022/04/08 01:37:22;;;;;;;8.88;1.40;;;5.50;99.90;;;;;;5008417;28;20045;-75
2022/04/08 01:39:48;;;;;;;6.60;1.02;;;5.50;99.90;;;;;;4989046;28;20947;-75
2022/04/08 01:42:14;;;;;;;6.65;1.42;;;5.50;99.90;;;;;;4988114;28;20052;-76
2022/04/08 01:44:40;;;;;;;6.45;1.20;;;5.50;99.90;;;;;;4989579;28;20057;-76
2022/04/08 01:47:07;;;;;;;8.77;1.55;;;5.40;99.90;;;;;;5005099;28;20067;-75
2022/04/08 01:49:33;;;;;;;4.93;1.15;;;5.30;99.90;;;;;;5001315;28;20379;-75
2022/04/08 01:51:59;;;;;;;5.93;1.30;;;5.30;99.90;;;;;;5004170;28;20531;-75
2022/04/08 01:54:25;;;;;;;7.15;1.42;;;5.20;99.90;;;;;;4985920;28;20046;-74
2022/04/08 01:56:50;;;;;;;6.80;1.20;;;5.10;99.90;;;;;;5006754;28;20096;-74
2022/04/08 01:59:16;;;;;;;9.60;1.38;;;5.00;99.90;;;;;;5005781;28;20045;-74
2022/04/08 02:01:42;;;;;;;10.35;1.30;;;5.00;99.90;;;;;;5007540;28;20887;-75
2022/04/08 02:04:08;;;;;;;5.45;1.38;;;5.00;99.90;;;;;;4987817;28;20049;-74
2022/04/08 02:06:36;;;;;;;10.38;1.40;;;5.00;99.90;;;;;;4985898;28;20048;-74
2022/04/08 02:09:03;;;;;;;7.50;1.40;;;5.00;99.90;;;;;;5006592;28;20071;-74
2022/04/08 02:11:29;;;;;;;8.35;1.40;;;4.90;99.90;;;;;;5008369;28;20493;-74
2022/04/08 02:13:55;;;;;;;11.10;1.40;;;4.80;99.90;;;;;;5007283;28;20107;-75
2022/04/08 02:16:20;;;;;;;10.05;1.40;;;4.80;99.90;;;;;;5006808;28;20076;-75
2022/04/08 02:18:46;;;;;;;9.93;1.58;;;4.80;99.90;;;;;;5007525;28;20083;-75
2022/04/08 02:21:19;;;;;;;8.93;1.40;;;4.60;99.90;;;;;;5009754;28;20747;-75
2022/04/08 02:23:46;;;;;;;8.70;1.40;;;4.60;99.90;;;;;;4986197;28;20201;-75
2022/04/08 02:26:13;;;;;;;9.25;1.55;;;4.50;99.90;;;;;;4988405;28;20054;-75
2022/04/08 02:28:39;;;;;;;10.23;1.60;;;4.40;99.90;;;;;;4991686;28;20783;-74
2022/04/08 02:31:05;;;;;;;8.43;1.45;;;4.30;99.90;;;;;;5006552;28;20062;-75
2022/04/08 02:33:32;;;;;;;12.70;1.52;;;4.30;99.90;;;;;;4988741;28;20063;-75
2022/04/08 02:35:57;;;;;;;9.10;1.83;;;4.20;99.90;;;;;;5008516;28;20100;-75
2022/04/08 02:38:23;;;;;;;9.55;1.83;;;4.10;99.90;;;;;;5004560;28;20691;-75
2022/04/08 02:40:49;;;;;;;9.38;1.55;;;4.00;99.90;;;;;;5008403;28;20579;-75
2022/04/08 02:43:15;;;;;;;11.40;1.60;;;4.00;99.90;;;;;;4988342;28;20058;-75
2022/04/08 02:45:41;;;;;;;14.10;2.10;;;4.00;99.90;;;;;;4987738;28;20058;-75
2022/04/08 02:48:07;;;;;;;10.48;1.80;;;4.00;99.90;;;;;;5006411;28;20042;-75
2022/04/08 02:50:33;;;;;;;10.63;1.88;;;3.90;99.90;;;;;;5005331;28;20065;-75
2022/04/08 02:52:59;;;;;;;12.13;2.03;;;3.90;99.90;;;;;;5004979;28;20187;-75
2022/04/08 02:55:25;;;;;;;9.02;1.70;;;4.00;99.90;;;;;;4994721;28;20178;-75
2022/04/08 02:57:50;;;;;;;12.63;2.83;;;3.90;99.90;;;;;;5004511;28;20144;-75
2022/04/08 03:00:19;;;;;;;10.43;1.85;;;4.10;99.90;;;;;;5005695;28;20045;-75
2022/04/08 03:02:45;;;;;;;15.07;2.25;;;4.20;99.90;;;;;;5005727;28;20467;-75
2022/04/08 03:05:12;;;;;;;16.40;2.47;;;4.30;99.90;;;;;;4989787;28;20096;-75
2022/04/08 03:07:38;;;;;;;10.82;2.15;;;4.50;99.90;;;;;;4994593;28;20539;-75
2022/04/08 03:10:06;;;;;;;12.30;1.77;;;4.60;99.90;;;;;;4989251;28;20045;-74
2022/04/08 03:12:32;;;;;;;12.27;1.60;;;4.60;99.90;;;;;;4990113;28;20068;-75
2022/04/08 03:14:58;;;;;;;7.38;1.30;;;4.40;99.90;;;;;;4989904;28;20127;-75
2022/04/08 03:17:24;;;;;;;7.40;1.27;;;4.40;99.90;;;;;;5008600;28;20168;-74
2022/04/08 03:19:50;;;;;;;7.80;1.40;;;4.30;99.90;;;;;;5002674;28;20065;-75
2022/04/08 03:22:20;;;;;;;8.02;1.63;;;4.30;99.90;;;;;;4993687;28;20083;-74
2022/04/08 03:24:50;;;;;;;8.82;1.55;;;4.30;99.90;;;;;;4998383;28;20400;-75
2022/04/08 03:27:17;;;;;;;8.63;1.60;;;4.30;99.90;;;;;;5004788;28;20124;-75
2022/04/08 03:29:44;;;;;;;11.13;1.80;;;4.20;99.90;;;;;;4987456;28;20140;-75
2022/04/08 03:32:10;;;;;;;10.88;1.60;;;4.20;99.90;;;;;;5003349;28;20508;-75
2022/04/08 03:34:36;;;;;;;9.18;1.70;;;4.20;99.90;;;;;;5006935;28;20107;-75
2022/04/08 03:37:03;;;;;;;8.43;1.50;;;4.20;99.90;;;;;;5006001;28;20056;-75
2022/04/08 03:39:29;;;;;;;9.38;1.55;;;4.10;99.90;;;;;;4987127;28;20049;-75
2022/04/08 03:41:54;;;;;;;7.63;1.67;;;4.20;99.90;;;;;;4991818;28;20408;-75
2022/04/08 03:44:20;;;;;;;11.15;1.70;;;4.20;99.90;;;;;;5006554;28;20045;-75
2022/04/08 03:46:46;;;;;;;7.25;1.67;;;4.20;99.90;;;;;;4993421;28;20783;-75
2022/04/08 03:49:16;;;;;;;8.90;1.58;;;4.20;99.90;;;;;;5002403;28;20041;-75
2022/04/08 03:51:43;;;;;;;11.07;2.00;;;4.20;99.90;;;;;;4992496;28;20737;-75
2022/04/08 03:54:11;;;;;;;12.68;1.83;;;4.20;99.90;;;;;;5002395;28;20144;-75
2022/04/08 03:56:37;;;;;;;8.13;1.80;;;4.20;99.90;;;;;;4984907;28;20057;-75
2022/04/08 03:59:04;;;;;;;11.60;2.10;;;4.30;99.90;;;;;;4988429;28;20533;-75
2022/04/08 04:01:30;;;;;;;11.85;2.20;;;4.30;99.90;;;;;;4990053;28;20155;-76
2022/04/08 04:03:56;;;;;;;11.57;2.10;;;4.50;99.90;;;;;;5006258;28;20045;-75
2022/04/08 04:06:22;;;;;;;14.60;2.47;;;4.50;99.90;;;;;;4984521;28;21127;-75
2022/04/08 04:08:48;;;;;;;17.38;2.33;;;4.50;99.90;;;;;;4988821;28;20053;-74
2022/04/08 04:11:16;;;;;;;16.40;2.70;;;4.60;99.90;;;;;;5003540;28;20071;-74
2022/04/08 04:13:43;;;;;;;18.63;2.75;;;4.60;99.90;;;;;;4985102;28;20137;-75
2022/04/08 04:16:10;;;;;;;14.10;2.47;;;4.60;99.90;;;;;;5008365;28;20049;-75
2022/04/08 04:18:36;;;;;;;15.05;3.00;;;4.60;99.90;;;;;;4990501;28;20043;-74
2022/04/08 04:21:02;;;;;;;16.55;3.20;;;4.60;99.90;;;;;;4986822;28;20045;-75
2022/04/08 04:23:28;;;;;;;15.80;2.67;;;4.60;99.90;;;;;;4987128;28;20056;-75
2022/04/08 04:25:54;;;;;;;13.73;2.53;;;4.60;99.90;;;;;;4999324;28;20045;-75
2022/04/08 04:28:19;;;;;;;17.30;3.65;;;4.50;99.90;;;;;;5006029;28;20053;-75
2022/04/08 04:30:45;;;;;;;15.98;2.50;;;4.40;99.90;;;;;;4986454;28;20126;-75
2022/04/08 04:33:11;;;;;;;16.92;2.40;;;4.40;99.90;;;;;;4988672;28;20248;-75
2022/04/08 04:35:38;;;;;;;16.55;2.90;;;4.40;99.90;;;;;;5006530;28;20044;-75
2022/04/08 04:38:05;;;;;;;15.88;2.60;;;4.20;99.90;;;;;;4969642;28;20107;-75
2022/04/08 04:40:31;;;;;;;12.60;2.53;;;4.20;99.90;;;;;;4986508;28;20057;-75
2022/04/08 04:42:57;;;;;;;10.20;1.90;;;4.20;99.90;;;;;;4985948;28;20049;-75
2022/04/08 04:45:24;;;;;;;11.30;2.10;;;4.10;99.90;;;;;;5004247;28;20049;-75
2022/04/08 04:47:50;;;;;;;11.60;2.15;;;4.20;99.90;;;;;;4983176;28;20059;-75
2022/04/08 04:50:16;;;;;;;12.25;2.40;;;4.10;99.90;;;;;;4985699;28;20108;-75
2022/04/08 04:52:42;;;;;;;9.25;2.20;;;4.10;99.90;;;;;;5002387;28;20140;-75
2022/04/08 04:55:09;;;;;;;11.68;2.47;;;4.00;99.90;;;;;;5010698;28;21812;-75
2022/04/08 04:57:36;;;;;;;11.77;2.63;;;4.10;99.90;;;;;;4992767;28;20152;-75
2022/04/08 05:00:03;;;;;;;9.35;2.22;;;4.00;99.90;;;;;;5007710;28;20041;-75
2022/04/08 05:02:29;;;;;;;10.65;2.17;;;4.10;99.90;;;;;;4993605;28;20041;-75
2022/04/08 05:04:55;;;;;;;8.82;1.95;;;4.10;99.90;;;;;;5006065;28;20050;-74
2022/04/08 05:07:20;;;;;;;7.82;2.28;;;4.10;99.90;;;;;;5003314;28;20049;-75
2022/04/08 05:09:46;;;;;;;9.73;2.13;;;4.20;99.90;;;;;;5004494;28;20072;-75
2022/04/08 05:12:12;;;;;;;9.70;2.47;;;4.30;99.90;;;;;;4998206;28;20041;-75
2022/04/08 05:14:38;;;;;;;9.98;2.28;;;4.30;99.90;;;;;;4981764;28;20420;-75
2022/04/08 05:17:04;;;;;;;9.98;2.20;;;4.30;99.90;;;;;;4996622;28;20152;-76
2022/04/08 05:19:30;;;;;;;12.32;2.30;;;4.30;99.90;;;;;;4992719;28;20502;-75
2022/04/08 05:21:56;;;;;;;12.05;2.30;;;4.30;99.90;;;;;;4965979;28;20092;-75
2022/04/08 05:24:22;;;;;;;7.57;2.00;;;4.30;99.90;;;;;;4983743;28;20053;-75
2022/04/08 05:26:48;;;;;;;10.50;2.00;;;4.30;99.90;;;;;;4981746;28;20044;-75
2022/04/08 05:29:14;;;;;;;12.70;2.60;;;4.40;99.90;;;;;;4985244;28;20064;-75
2022/04/08 05:31:39;;;;;;;10.05;2.22;;;4.40;99.90;;;;;;4965972;28;20049;-75
2022/04/08 05:34:05;;;;;;;10.50;2.45;;;4.50;99.90;;;;;;4985016;28;20045;-75
2022/04/08 05:36:31;;;;;;;10.18;2.45;;;4.50;99.90;;;;;;4982961;28;20111;-75
2022/04/08 05:38:57;;;;;;;9.73;2.42;;;4.60;99.90;;;;;;4980166;28;20737;-75
2022/04/08 05:41:24;;;;;;;11.98;2.70;;;4.60;99.90;;;;;;4981169;28;20045;-75
2022/04/08 05:43:49;;;;;;;9.15;2.58;;;4.60;99.90;;;;;;4978339;28;20472;-75
2022/04/08 05:46:15;;;;;;;11.38;2.72;;;4.70;99.90;;;;;;4964800;28;20748;-75
2022/04/08 05:48:41;;;;;;;9.07;2.35;;;4.60;99.90;;;;;;4945968;28;20053;-75
2022/04/08 05:51:08;;;;;;;7.10;2.30;;;4.70;99.90;;;;;;4981381;28;20040;-75
2022/04/08 05:53:33;;;;;;;10.23;2.50;;;4.60;99.90;;;;;;4966726;28;20639;-75
2022/04/08 05:56:02;;;;;;;12.73;2.85;;;4.60;99.90;;;;;;4970903;28;20057;-76
2022/04/08 05:58:28;;;;;;;8.55;2.30;;;4.50;99.90;;;;;;4962604;28;20140;-75
2022/04/08 06:00:54;;;;;;;9.10;2.50;;;4.40;99.90;;;;;;4966792;28;20131;-75
2022/04/08 06:03:20;;;;;;;9.73;2.22;;;4.20;99.90;;;;;;4989366;28;20052;-75
2022/04/08 06:05:46;;;;;;;8.65;2.00;;;4.10;99.90;;;;;;4985988;28;20037;-75
2022/04/08 06:08:12;;;;;;;9.63;2.13;;;4.00;99.90;;;;;;4982356;28;20103;-75
2022/04/08 06:10:38;;;;;;;5.22;1.60;;;3.90;99.90;;;;;;4981449;28;20053;-74
2022/04/08 06:13:04;;;;;;;5.28;1.70;;;3.90;99.90;;;;;;4983937;28;20060;-75
2022/04/08 06:15:31;;;;;;;6.75;1.83;;;3.90;99.90;;;;;;4981463;28;20041;-75
2022/04/08 06:17:58;;;;;;;5.07;2.00;;;4.00;99.90;;;;;;4983763;28;20049;-74
2022/04/08 06:20:24;;;;;;;8.50;2.17;;;4.00;99.90;;;;;;4983879;28;20080;-75
2022/04/08 06:22:52;;;;;;;9.10;2.33;;;4.10;99.90;;;;;;4991345;28;20068;-75
2022/04/08 06:25:20;;;;;;;5.63;2.00;;;4.10;99.90;;;;;;4975887;28;20157;-74
2022/04/08 06:27:57;;;;;;;8.30;2.35;;;4.20;99.90;;;;;;4966122;28;20045;-75
2022/04/08 06:30:24;;;;;;;5.85;1.77;;;4.00;99.90;;;;;;4989822;28;20152;-74
2022/04/08 06:32:50;;;;;;;4.63;1.60;;;3.90;99.90;;;;;;4994697;28;20087;-74
2022/04/08 06:35:16;;;;;;;6.88;1.85;;;3.70;99.90;;;;;;5009123;28;20124;-74
2022/04/08 06:37:42;;;;;;;6.40;1.60;;;3.70;99.90;;;;;;5011745;28;20076;-75
2022/04/08 06:40:10;;;;;;;5.95;1.70;;;3.60;99.90;;;;;;4994927;28;20612;-74
2022/04/08 06:42:36;;;;;;;5.32;1.80;;;3.50;99.90;;;;;;5011570;28;20134;-75
2022/04/08 06:45:04;;;;;;;4.75;1.70;;;3.30;99.90;;;;;;5011457;28;20102;-75
2022/04/08 06:47:30;;;;;;;6.55;1.70;;;3.10;99.90;;;;;;4994651;28;20083;-75
2022/04/08 06:49:56;;;;;;;4.32;1.67;;;3.10;99.90;;;;;;5014829;28;20229;-75
2022/04/08 06:52:22;;;;;;;4.18;1.38;;;3.10;99.90;;;;;;5013324;28;21054;-75
2022/04/08 06:54:48;;;;;;;5.50;1.60;;;3.10;99.90;;;;;;5014274;28;20057;-75
2022/04/08 06:57:14;;;;;;;3.85;1.35;;;3.10;99.90;;;;;;4996976;28;20579;-75
2022/04/08 06:59:40;;;;;;;5.80;1.40;;;3.20;99.90;;;;;;5008624;28;20041;-75
2022/04/08 07:02:06;;;;;;;4.00;1.30;;;3.20;99.90;;;;;;4996240;28;20057;-75
2022/04/08 07:04:32;;;;;;;4.25;1.50;;;3.40;99.90;;;;;;5010865;28;20063;-75
2022/04/08 07:06:58;;;;;;;7.25;1.80;;;3.50;99.90;;;;;;5014033;28;20415;-75
2022/04/08 07:09:24;;;;;;;4.40;2.08;;;3.90;99.90;;;;;;5013785;28;20045;-75
2022/04/08 07:11:50;;;;;;;4.93;2.13;;;4.60;99.90;;;;;;5012215;28;20784;-75
2022/04/08 07:14:16;;;;;;;4.40;1.98;;;4.50;99.90;;;;;;5015419;28;20037;-75
2022/04/08 07:16:43;;;;;;;6.10;1.90;;;4.80;99.90;;;;;;5000393;28;20045;-74
2022/04/08 07:19:10;;;;;;;4.35;1.90;;;4.70;99.90;;;;;;5009523;28;20573;-75
2022/04/08 07:21:37;;;;;;;5.38;1.67;;;4.60;99.90;;;;;;5010736;28;20099;-75
2022/04/08 07:24:03;;;;;;;5.38;1.83;;;4.60;99.90;;;;;;4990870;28;21042;-75
2022/04/08 07:26:29;;;;;;;7.00;1.85;;;4.70;99.90;;;;;;5010500;28;20132;-76
2022/04/08 07:28:55;;;;;;;4.82;1.70;;;4.80;99.90;;;;;;5008510;28;20091;-75
2022/04/08 07:31:21;;;;;;;5.35;1.70;;;4.80;99.90;;;;;;4975330;28;20084;-75
2022/04/08 07:33:47;;;;;;;8.10;2.05;;;5.10;99.90;;;;;;5008075;28;20042;-75
2022/04/08 07:36:13;;;;;;;7.15;2.03;;;5.50;99.90;;;;;;4992676;28;20050;-75
2022/04/08 07:38:40;;;;;;;5.03;2.30;;;5.80;99.90;;;;;;5010687;28;20085;-75
2022/04/08 07:41:06;;;;;;;8.82;2.10;;;5.80;99.90;;;;;;5011757;28;20053;-75
2022/04/08 07:43:31;;;;;;;11.65;2.20;;;6.10;99.90;;;;;;4991389;28;20373;-75
2022/04/08 07:45:57;;;;;;;6.88;2.00;;;6.40;99.90;;;;;;5012411;28;20048;-76
2022/04/08 07:48:23;;;;;;;6.50;2.20;;;6.40;99.90;;;;;;4991542;28;20081;-75
2022/04/08 07:50:49;;;;;;;6.32;1.90;;;6.50;99.90;;;;;;5009969;28;20055;-75
2022/04/08 07:53:15;;;;;;;6.57;2.20;;;6.70;99.90;;;;;;4976687;28;20819;-76
2022/04/08 07:55:41;;;;;;;5.93;1.80;;;6.80;99.90;;;;;;5009216;28;20915;-76
2022/04/08 07:58:07;;;;;;;11.70;1.90;;;6.60;99.90;;;;;;5010068;28;20045;-76
2022/04/08 08:00:34;;;;;;;9.18;2.17;;;6.60;99.90;;;;;;5006576;28;20054;-75
2022/04/08 08:03:00;;;;;;;6.00;2.05;;;7.00;99.90;;;;;;5007537;28;20052;-75
2022/04/08 08:05:27;;;;;;;7.15;2.20;;;7.40;99.90;;;;;;4984324;28;20180;-76
2022/04/08 08:07:55;;;;;;;8.32;2.10;;;7.80;99.90;;;;;;5005030;28;20092;-76
2022/04/08 08:10:23;;;;;;;5.65;1.90;;;7.90;99.90;;;;;;4999944;28;20049;-76
2022/04/08 08:12:50;;;;;;;6.65;2.05;;;7.60;99.90;;;;;;5000316;28;20050;-75
2022/04/08 08:15:18;;;;;;;6.35;2.03;;;7.30;99.90;;;;;;5009407;28;20052;-76
2022/04/08 08:17:44;;;;;;;7.13;2.80;;;7.40;99.90;;;;;;4991046;28;20061;-76
2022/04/08 08:20:13;;;;;;;8.68;3.00;;;7.40;99.90;;;;;;5008401;28;20045;-75
2022/04/08 08:22:39;;;;;;;8.98;2.90;;;8.00;99.90;;;;;;5008949;28;20506;-75
2022/04/08 08:25:09;;;;;;;7.30;2.55;;;7.80;99.90;;;;;;4988757;28;20107;-76
2022/04/08 08:27:43;;;;;;;7.20;2.60;;;7.60;99.90;;;;;;4975987;28;20045;-74
2022/04/08 08:30:11;;;;;;;9.52;2.85;;;7.40;99.90;;;;;;5009843;28;20045;-76
2022/04/08 08:32:38;;;;;;;8.23;2.45;;;7.10;99.90;;;;;;5010928;28;20127;-76
2022/04/08 08:35:07;;;;;;;6.75;2.78;;;7.00;99.90;;;;;;4994138;28;20057;-76
2022/04/08 08:37:34;;;;;;;8.48;2.72;;;6.80;99.90;;;;;;5009580;28;21096;-75
2022/04/08 08:40:00;;;;;;;8.50;2.80;;;6.80;99.90;;;;;;5013619;28;20052;-75
2022/04/08 08:42:27;;;;;;;9.93;2.92;;;6.60;99.90;;;;;;5016101;28;20124;-75
2022/04/08 08:44:54;;;;;;;10.18;3.58;;;6.60;99.90;;;;;;5010305;28;20178;-75
2022/04/08 08:47:20;;;;;;;10.63;3.50;;;6.50;99.90;;;;;;5011020;28;21172;-76
2022/04/08 08:49:49;;;;;;;12.02;3.80;;;6.50;99.90;;;;;;5007007;28;20045;-75
2022/04/08 08:52:18;;;;;;;11.32;3.78;;;6.40;99.90;;;;;;4988603;28;20437;-75
2022/04/08 08:54:45;;;;;;;89.85;9.52;;;6.40;99.90;;;;;;4985095;28;20059;-75
2022/04/08 08:57:21;;;;;;;14.23;3.95;;;6.50;99.90;;;;;;4989548;28;20053;-75
2022/04/08 08:59:52;;;;;;;10.63;4.32;;;6.60;99.90;;;;;;4977666;28;20049;-75
2022/04/08 09:02:22;;;;;;;11.38;4.90;;;6.60;99.90;;;;;;5013848;28;20548;-75
2022/04/08 09:04:51;;;;;;;10.23;4.95;;;6.50;99.90;;;;;;5010558;28;20060;-76
2022/04/08 09:07:28;;;;;;;9.95;4.80;;;6.60;99.90;;;;;;5010411;28;20159;-76
2022/04/08 09:09:56;;;;;;;10.75;4.43;;;6.60;99.90;;;;;;4978331;28;20052;-75
2022/04/08 09:12:28;;;;;;;9.30;4.30;;;6.60;99.90;;;;;;5008619;28;20060;-75
2022/04/08 09:15:04;;;;;;;12.25;4.47;;;6.60;99.90;;;;;;5010369;28;20049;-75
2022/04/08 09:17:30;;;;;;;10.02;3.83;;;6.60;99.90;;;;;;4996720;28;20045;-75
2022/04/08 09:19:58;;;;;;;6.72;2.50;;;6.50;99.90;;;;;;4995439;28;20800;-75
2022/04/08 09:22:29;;;;;;;9.23;2.00;;;6.30;99.90;;;;;;5013543;28;20056;-75
2022/04/08 09:25:10;;;;;;;6.00;2.30;;;6.20;99.90;;;;;;5012764;28;20060;-75
2022/04/08 09:27:41;;;;;;;8.23;2.20;;;6.10;99.90;;;;;;5011541;28;20484;-75
2022/04/08 09:30:08;;;;;;;9.07;1.75;;;5.90;99.90;;;;;;5011837;28;20748;-75
2022/04/08 09:32:35;;;;;;;6.88;1.85;;;5.90;99.90;;;;;;5010246;28;20049;-76
2022/04/08 09:35:03;;;;;;;7.25;1.75;;;6.10;99.90;;;;;;4996453;28;20045;-76
2022/04/08 09:37:29;;;;;;;7.63;1.70;;;6.20;99.90;;;;;;5011295;28;20052;-75
2022/04/08 09:39:56;;;;;;;6.25;1.50;;;6.40;99.90;;;;;;5005273;28;20041;-76
2022/04/08 09:42:42;;;;;;;7.75;2.10;;;6.70;99.90;;;;;;4997495;28;20725;-76
2022/04/08 09:45:09;;;;;;;7.30;2.30;;;7.30;99.90;;;;;;5012910;28;20041;-76
2022/04/08 09:47:36;;;;;;;8.45;2.88;;;7.50;99.90;;;;;;4994110;28;20053;-75
2022/04/08 09:50:02;;;;;;;9.95;3.03;;;7.90;99.90;;;;;;5012787;28;20052;-75
2022/04/08 09:52:29;;;;;;;8.73;3.15;;;8.20;99.90;;;;;;5011268;28;20088;-76
2022/04/08 09:54:59;;;;;;;14.27;4.10;;;8.50;99.90;;;;;;5011853;28;20057;-76
2022/04/08 09:57:29;;;;;;;11.00;4.45;;;8.90;99.90;;;;;;5011484;28;20052;-76
2022/04/08 09:59:58;;;;;;;16.50;4.32;;;9.30;99.90;;;;;;4993583;28;20080;-75
2022/04/08 10:02:29;;;;;;;11.57;4.20;;;9.60;99.90;;;;;;4995570;28;20056;-75
2022/04/08 10:04:59;;;;;;;11.18;4.22;;;9.80;99.90;;;;;;5014319;28;20085;-74
2022/04/08 10:07:26;;;;;;;10.40;4.20;;;10.00;99.90;;;;;;4993068;28;20059;-75
2022/04/08 10:10:09;;;;;;;12.43;3.90;;;10.00;99.90;;;;;;5011139;28;20052;-76
2022/04/08 10:12:55;;;;;;;12.10;3.60;;;10.10;99.90;;;;;;5010220;28;20037;-75
2022/04/08 10:15:44;;;;;;;13.88;4.40;;;10.00;99.90;;;;;;5010230;28;20120;-76
2022/04/08 10:18:11;;;;;;;10.48;3.60;;;10.40;99.90;;;;;;5007974;28;20084;-77
2022/04/08 10:20:40;;;;;;;13.23;3.95;;;10.20;99.90;;;;;;5011602;28;20041;-76
2022/04/08 10:23:11;;;;;;;12.55;3.90;;;10.10;99.90;;;;;;4997910;28;20059;-77
2022/04/08 10:25:48;;;;;;;10.90;3.58;;;10.10;99.90;;;;;;5012573;28;20045;-76
2022/04/08 10:28:13;;;;;;;13.55;3.70;;;10.30;99.90;;;;;;5010205;28;20045;-76
2022/04/08 10:31:00;;;;;;;8.95;2.90;;;10.60;99.90;;;;;;5011472;28;20041;-77
2022/04/08 10:33:28;;;;;;;10.77;3.00;;;10.30;99.90;;;;;;5013086;28;20876;-76
2022/04/08 10:35:55;;;;;;;11.38;2.65;;;10.30;99.90;;;;;;4992194;28;20470;-75
2022/04/08 10:38:22;;;;;;;7.55;2.40;;;10.00;99.90;;;;;;4992322;28;20115;-76
2022/04/08 10:40:58;;;;;;;10.15;2.63;;;10.00;99.90;;;;;;4991623;28;20057;-76
2022/04/08 10:43:26;;;;;;;12.63;2.78;;;10.00;99.90;;;;;;5011578;28;20048;-77
2022/04/08 10:45:57;;;;;;;10.00;3.47;;;9.80;99.90;;;;;;4994423;28;20063;-76
2022/04/08 10:48:31;;;;;;;10.93;2.95;;;9.70;99.90;;;;;;5009662;28;20527;-76
2022/04/08 10:51:05;;;;;;;10.27;2.78;;;9.80;99.90;;;;;;4991829;28;20155;-76
2022/04/08 10:53:33;;;;;;;8.73;2.17;;;10.30;99.90;;;;;;5010846;28;20331;-77
2022/04/08 10:56:12;;;;;;;9.23;1.80;;;10.40;99.90;;;;;;4992199;28;20053;-75
2022/04/08 10:58:45;;;;;;;7.03;1.73;;;10.30;99.90;;;;;;5006228;28;20491;-76
2022/04/08 11:01:26;;;;;;;9.30;1.90;;;10.20;99.90;;;;;;5009206;28;20094;-75
2022/04/08 11:04:00;;;;;;;11.27;2.85;;;10.70;99.90;;;;;;4978987;28;20167;-75
2022/04/08 11:06:28;;;;;;;7.72;1.88;;;10.70;99.90;;;;;;4989856;28;20053;-75
2022/04/08 11:08:54;;;;;;;8.38;2.03;;;10.50;99.90;;;;;;4994089;28;20045;-75
2022/04/08 11:11:34;;;;;;;8.32;2.50;;;10.30;99.90;;;;;;5008963;28;20065;-76
2022/04/08 11:14:02;;;;;;;11.82;3.45;;;10.70;99.90;;;;;;4993198;28;20068;-77
2022/04/08 11:16:32;;;;;;;10.18;2.67;;;10.70;99.90;;;;;;4991220;28;20049;-76
2022/04/08 11:18:58;;;;;;;10.45;3.10;;;10.70;99.90;;;;;;4996408;28;20213;-76
2022/04/08 11:21:24;;;;;;;7.75;2.42;;;10.30;99.90;;;;;;4992774;28;20049;-75
2022/04/08 11:23:58;;;;;;;9.70;2.60;;;10.00;99.90;;;;;;4994810;28;20196;-75
2022/04/08 11:26:24;;;;;;;9.00;2.35;;;10.00;99.90;;;;;;5007227;28;20053;-75
2022/04/08 11:28:49;;;;;;;6.82;2.05;;;9.90;99.90;;;;;;4988556;28;20094;-75
2022/04/08 11:31:18;;;;;;;8.07;1.90;;;9.80;99.90;;;;;;5008039;28;20045;-75
2022/04/08 11:33:44;;;;;;;6.60;1.83;;;10.60;99.90;;;;;;5008982;28;20061;-75
2022/04/08 11:36:10;;;;;;;9.15;2.05;;;10.60;99.90;;;;;;4993945;28;20099;-75
2022/04/08 11:38:36;;;;;;;10.25;2.60;;;10.90;99.90;;;;;;5009693;28;20847;-74
2022/04/08 11:41:03;;;;;;;8.63;2.30;;;10.80;99.90;;;;;;4990196;28;20045;-74
2022/04/08 11:43:30;;;;;;;9.30;2.40;;;10.30;99.90;;;;;;4993815;28;20060;-75
2022/04/08 11:45:56;;;;;;;11.45;2.30;;;10.00;99.90;;;;;;4975886;28;20052;-75
2022/04/08 11:48:25;;;;;;;7.80;1.98;;;9.80;99.90;;;;;;4987242;28;20057;-75
2022/04/08 11:50:53;;;;;;;9.43;2.17;;;9.80;99.90;;;;;;4986454;28;21041;-76
2022/04/08 11:53:23;;;;;;;8.32;1.95;;;10.00;99.90;;;;;;5009276;28;20556;-74
2022/04/08 11:56:01;;;;;;;9.32;2.38;;;10.10;99.90;;;;;;4991194;28;20454;-75
2022/04/08 11:58:28;;;;;;;10.80;2.38;;;10.00;99.90;;;;;;5006853;28;20056;-76
2022/04/08 12:00:55;;;;;;;6.35;1.92;;;10.20;99.90;;;;;;4990283;28;20063;-75
2022/04/08 12:03:29;;;;;;;7.75;2.15;;;10.10;99.90;;;;;;4989984;28;20057;-75
2022/04/08 12:05:55;;;;;;;10.65;2.17;;;10.20;99.90;;;;;;5007700;28;20749;-75
2022/04/08 12:08:21;;;;;;;7.32;2.30;;;10.50;99.90;;;;;;4992206;28;20049;-74
2022/04/08 12:10:52;;;;;;;10.93;2.67;;;10.60;99.90;;;;;;4987128;28;20060;-74
2022/04/08 12:13:27;;;;;;;8.95;2.35;;;10.60;99.90;;;;;;4991228;28;20088;-75
2022/04/08 12:15:58;;;;;;;8.07;2.15;;;10.70;99.90;;;;;;4989729;28;20111;-75
2022/04/08 12:18:32;;;;;;;6.57;2.13;;;10.50;99.90;;;;;;4998311;28;21034;-75
2022/04/08 12:21:07;;;;;;;9.55;2.10;;;10.40;99.90;;;;;;4982344;28;20621;-74
2022/04/08 12:23:33;;;;;;;12.77;2.40;;;10.10;99.90;;;;;;4988591;28;20065;-75
2022/04/08 12:26:05;;;;;;;10.27;2.58;;;10.00;99.90;;;;;;4986736;28;20053;-74
2022/04/08 12:28:35;;;;;;;13.75;2.35;;;10.10;99.90;;;;;;5005870;28;20111;-75
2022/04/08 12:31:14;;;;;;;11.35;2.58;;;10.10;99.90;;;;;;4990526;28;20048;-74
2022/04/08 12:33:42;;;;;;;9.15;2.15;;;10.10;99.90;;;;;;5007818;28;20515;-75
2022/04/08 12:36:09;;;;;;;8.93;2.42;;;9.80;99.90;;;;;;5003962;28;20047;-74
2022/04/08 12:38:38;;;;;;;10.68;2.28;;;9.20;99.90;;;;;;5003970;28;20049;-75
2022/04/08 12:41:05;;;;;;;12.00;2.60;;;9.00;99.90;;;;;;5009220;28;20057;-75
2022/04/08 12:43:32;;;;;;;9.23;1.80;;;8.80;99.90;;;;;;5006623;28;20045;-74
2022/04/08 12:45:58;;;;;;;8.23;1.92;;;8.60;99.90;;;;;;4991503;28;21077;-74
2022/04/08 12:48:24;;;;;;;9.43;1.85;;;8.60;99.90;;;;;;5009482;28;20060;-74
2022/04/08 12:50:49;;;;;;;9.48;2.53;;;8.60;99.90;;;;;;5006096;28;20045;-74
2022/04/08 12:53:15;;;;;;;7.40;1.80;;;8.60;99.90;;;;;;5009187;28;20041;-74